• Join FlightAware (Why Join?)
  • Login
  • US Flag 
10:04PM EDT


 

Airport Tracker/Info


-or-


 

Live Flight TrackerFlight Track Log ✈ SWA34 ✈ 05-May-2013 ✈ KHOU - KDAL

Flight Track Log - Related Links

Times and Time Zones

All times are in EDT time to prevent confusion due to time zone crossing. See the SWA34 flight status page for this flight to view local times or setup timezone preferences in your user account.

Time Position Orientation Groundspeed Altitude Reporting Facility
EDT Latitude Longitude Course Direction KTS MPH feet Rate Location/Type
04:05PM 29.6694 -95.3106 331° Northwest 187 215 3,100  Level Houston Center
04:06PM 29.7314 -95.3156 356° North 222 255 6,300 3,780 Climbing Houston Center
04:07PM 29.8183 -95.3328 350° North 259 298 11,000 3,120 Climbing Houston Center
04:09PM 29.9969 -95.3681 350° North 328 377 16,000 1,560 Climbing Houston Center
04:10PM 30.0906 -95.3864 350° North 337 388 16,000 720 Level Houston Center
04:11PM 30.1864 -95.4064 350° North 339 390 17,500 2,160 Climbing Houston Center
04:12PM 30.2814 -95.4250 350° North 352 405 20,600 3,060 Climbing Houston Center
04:13PM 30.4050 -95.4508 350° North 373 429 23,900 2,940 Climbing Houston Center
04:14PM 30.5111 -95.4692 352° North 386 444 26,700 2,640 Climbing Houston Center
04:15PM 30.6156 -95.4936 349° North 384 442 29,400 1,560 Climbing Houston Center
04:16PM 30.7286 -95.5206 348° North 393 452 30,000 240 Climbing Houston Center
04:17PM 30.8422 -95.5450 350° North 409 471 30,000  Level Houston Center
04:18PM 30.9553 -95.5706 349° North 411 473 30,000  Level Houston Center
04:19PM 31.0672 -95.5958 349° North 408 470 30,000  Level Houston Center
04:20PM 31.2014 -95.6261 349° North 407 468 30,000  Level Houston Center
04:21PM 31.2822 -95.6436 350° North 409 471 30,000  Level Fort Worth Center
04:22PM 31.3914 -95.6831 343° North 400 460 30,000  Level Fort Worth Center
04:23PM 31.4842 -95.7447 330° Northwest 390 449 30,000  Level Fort Worth Center
04:24PM 31.5811 -95.8089 331° Northwest 392 451 30,000 -1,080 Level Fort Worth Center
04:25PM 31.6736 -95.8706 330° Northwest 387 445 27,900 -2,100 Descending Fort Worth Center
04:26PM 31.7536 -95.9303 328° Northwest 387 445 25,900 -2,280 Descending Fort Worth Center
04:28PM 31.9325 -96.0475 331° Northwest 353 406 21,100 -2,340 Descending Fort Worth Center
04:29PM 32.0208 -96.1050 331° Northwest 338 389 18,900 -2,160 Descending Fort Worth Center
04:30PM 32.0986 -96.1578 330° Northwest 333 383 16,900 -2,160 Descending Fort Worth Center
04:31PM 32.1764 -96.2131 329° Northwest 321 369 14,600 -2,100 Descending Fort Worth Center
04:32PM 32.2456 -96.2539 333° Northwest 316 364 12,700 -2,040 Descending Fort Worth Center
04:33PM 32.3253 -96.3022 333° Northwest 304 350 10,600 -1,500 Descending Fort Worth Center
04:34PM 32.3800 -96.3531 322° Northwest 287 330 9,800 -840 Descending Fort Worth Center
04:35PM 32.4389 -96.4114 320° Northwest 262 302 9,000 -1,200 Descending Fort Worth Center
04:36PM 32.4853 -96.4603 318° Northwest 248 285 7,400 -1,620 Descending Fort Worth Center
04:37PM 32.5442 -96.5214 319° Northwest 248 285 5,800 -1,500 Descending Fort Worth Center
04:38PM 32.5906 -96.5700 319° Northwest 248 285 4,500 -960 Descending Fort Worth Center
04:39PM 32.6494 -96.6289 320° Northwest 248 285 4,000 -540 Descending Fort Worth Center
04:40PM 32.6892 -96.6778 314° West 242 278 3,500 -360 Descending Fort Worth Center
04:41PM 32.7333 -96.7269 317° Northwest 211 243 3,300 -600 Descending Fort Worth Center
04:42PM 32.7669 -96.7661 316° Northwest 191 220 2,400 -960 Descending Fort Worth Center
04:43PM 32.8000 -96.8000 319° Northwest 143 165 1,400 -900 Descending Dallas / Fort Worth TRACON
04:44PM 32.8333 -96.8333 320° Northwest 130 150 700 7,440 Descending Dallas / Fort Worth TRACON
04:46PM 32.8783 -96.8964 310° West 144 166 24,000 11,400 Climbing Fort Worth Center